Time;durP1;ratioP1;P1;durP2;ratioP2;P2;SDS_P1;SDS_P2;PMS_P1;PMS_P2;Temp;Humidity;BMP_temperature;BMP_pressure;BME280_temperature;BME280_humidity;BME280_pressure;Samples;Min_cycle;Max_cycle;Signal;HPM_P1;HPM_P2
2023/07/11 04:02:32;;;;;;;2.70;1.83;;;16.00;99.90;;;;;;5053072;23;20851;-69
2023/07/11 04:04:59;;;;;;;2.40;2.30;;;16.00;99.90;;;;;;5012426;28;20653;-69
2023/07/11 04:07:26;;;;;;;1.93;1.90;;;16.10;99.90;;;;;;5011852;28;20874;-70
2023/07/11 04:09:52;;;;;;;4.13;2.97;;;16.10;99.90;;;;;;5011722;28;20494;-70
2023/07/11 04:12:19;;;;;;;2.73;2.60;;;16.20;99.90;;;;;;4993991;28;20483;-71
2023/07/11 04:14:46;;;;;;;2.00;2.00;;;16.30;99.90;;;;;;4992366;28;20478;-70
2023/07/11 04:17:12;;;;;;;1.90;1.67;;;16.30;99.90;;;;;;4991951;28;20471;-70
2023/07/11 04:19:40;;;;;;;2.00;2.00;;;16.40;99.90;;;;;;4991878;28;20459;-70
2023/07/11 04:22:07;;;;;;;2.20;2.10;;;16.50;99.90;;;;;;4992014;28;20487;-70
2023/07/11 04:24:34;;;;;;;3.33;2.30;;;16.60;99.90;;;;;;4991480;28;20479;-71
2023/07/11 04:27:01;;;;;;;3.80;2.50;;;16.70;99.90;;;;;;4991691;28;20462;-70
2023/07/11 04:29:27;;;;;;;2.17;2.07;;;16.80;99.90;;;;;;4991405;28;20515;-70
2023/07/11 04:31:54;;;;;;;2.90;2.80;;;17.30;99.90;;;;;;4991192;28;20493;-70
2023/07/11 04:34:21;;;;;;;1.50;1.50;;;17.80;99.90;;;;;;4990998;28;20471;-70
2023/07/11 04:36:49;;;;;;;2.67;1.97;;;18.40;99.90;;;;;;4991594;28;20494;-70
2023/07/11 04:39:16;;;;;;;1.20;1.20;;;18.40;99.90;;;;;;4991403;28;20581;-70
2023/07/11 04:41:42;;;;;;;1.60;1.60;;;18.40;99.90;;;;;;4991619;28;20495;-71
2023/07/11 04:44:09;;;;;;;2.30;2.20;;;18.30;99.90;;;;;;4986587;28;20466;-70
2023/07/11 04:46:36;;;;;;;2.27;2.20;;;18.20;99.90;;;;;;4991034;28;20459;-70
2023/07/11 04:49:03;;;;;;;1.93;1.50;;;18.40;99.90;;;;;;4991355;28;20491;-70
2023/07/11 04:51:31;;;;;;;1.73;1.60;;;18.80;99.90;;;;;;4991402;28;20522;-70
2023/07/11 04:54:00;;;;;;;3.90;1.90;;;18.90;99.90;;;;;;4990889;28;20463;-70
2023/07/11 04:56:26;;;;;;;3.23;1.43;;;18.90;99.90;;;;;;4991484;28;20882;-70
2023/07/11 04:58:53;;;;;;;4.33;1.73;;;19.10;99.90;;;;;;4991201;28;20470;-70
2023/07/11 05:01:20;;;;;;;2.00;1.90;;;19.40;99.90;;;;;;4990750;28;20570;-70
2023/07/11 05:03:49;;;;;;;2.00;1.90;;;20.10;99.90;;;;;;4991185;28;20476;-70
2023/07/11 05:06:16;;;;;;;1.70;1.70;;;20.60;99.90;;;;;;4990890;28;20467;-70
2023/07/11 05:08:43;;;;;;;1.20;1.20;;;21.20;99.90;;;;;;4991023;28;20487;-70
2023/07/11 05:11:14;;;;;;;1.10;1.10;;;21.50;99.90;;;;;;4991216;28;20489;-69
2023/07/11 05:13:41;;;;;;;1.40;1.40;;;21.30;99.90;;;;;;4990960;28;20473;-67
2023/07/11 05:16:10;;;;;;;1.43;1.43;;;21.50;99.90;;;;;;4991214;28;20465;-68
2023/07/11 05:18:40;;;;;;;1.60;1.60;;;21.70;99.90;;;;;;4992190;28;20470;-69
2023/07/11 05:21:07;;;;;;;2.80;1.90;;;22.00;99.90;;;;;;4991196;28;21015;-68
2023/07/11 05:23:34;;;;;;;3.43;1.53;;;22.40;99.90;;;;;;4991346;28;20474;-69
2023/07/11 05:26:02;;;;;;;0.93;0.93;;;22.40;99.90;;;;;;4991159;28;20464;-68
2023/07/11 05:28:30;;;;;;;1.47;1.30;;;22.60;99.90;;;;;;4990902;28;20464;-69
2023/07/11 05:30:57;;;;;;;0.70;0.70;;;22.70;99.90;;;;;;4991192;28;20590;-69
2023/07/11 05:33:24;;;;;;;1.53;1.43;;;22.80;99.90;;;;;;4990246;28;20820;-69
2023/07/11 05:36:01;;;;;;;1.63;1.40;;;23.10;99.90;;;;;;4991079;28;20469;-68
2023/07/11 05:38:27;;;;;;;4.20;1.23;;;23.50;99.90;;;;;;4990811;28;20513;-69
2023/07/11 05:40:54;;;;;;;1.47;0.90;;;23.50;99.90;;;;;;4994001;28;20587;-69
2023/07/11 05:43:21;;;;;;;1.40;1.40;;;23.60;99.90;;;;;;4989614;28;20464;-69
2023/07/11 05:45:49;;;;;;;1.43;1.30;;;23.70;99.90;;;;;;4991103;28;20697;-69
2023/07/11 05:48:16;;;;;;;1.00;1.00;;;23.80;99.90;;;;;;4994520;28;20493;-69
2023/07/11 05:50:42;;;;;;;0.80;0.80;;;23.80;99.90;;;;;;4994926;28;20498;-68
2023/07/11 05:53:09;;;;;;;1.13;1.13;;;23.90;99.90;;;;;;4995039;28;20570;-68
2023/07/11 05:55:36;;;;;;;1.13;0.93;;;23.80;99.90;;;;;;4994622;28;20474;-68
2023/07/11 05:58:02;;;;;;;1.10;1.10;;;23.60;99.90;;;;;;4994305;28;20547;-68
2023/07/11 06:00:29;;;;;;;1.13;1.13;;;23.40;99.90;;;;;;4994459;28;20759;-68
2023/07/11 06:02:57;;;;;;;1.70;1.70;;;23.10;99.90;;;;;;4994669;28;20468;-68
2023/07/11 06:05:24;;;;;;;1.33;1.20;;;23.40;99.90;;;;;;4994870;28;20470;-67
2023/07/11 06:07:50;;;;;;;0.70;0.70;;;23.70;99.90;;;;;;4994830;28;20462;-69
2023/07/11 06:10:17;;;;;;;1.50;1.10;;;24.20;99.90;;;;;;4994943;28;20557;-68
2023/07/11 06:12:44;;;;;;;0.90;0.90;;;24.50;99.90;;;;;;4994596;28;20481;-68
2023/07/11 06:15:11;;;;;;;1.23;0.90;;;25.10;99.90;;;;;;4995915;28;20985;-68
2023/07/11 06:17:37;;;;;;;1.10;1.10;;;25.50;99.90;;;;;;4996347;28;20474;-68
2023/07/11 06:20:09;;;;;;;0.63;0.63;;;25.80;99.90;;;;;;4997054;28;20462;-68
2023/07/11 06:22:35;;;;;;;2.30;0.87;;;25.70;99.90;;;;;;4995733;28;20868;-68
2023/07/11 06:25:02;;;;;;;2.20;1.30;;;25.80;99.90;;;;;;4993984;28;20469;-68
2023/07/11 06:27:29;;;;;;;1.00;1.00;;;26.10;99.90;;;;;;4993227;28;20951;-68
2023/07/11 06:29:56;;;;;;;0.80;0.80;;;26.40;99.90;;;;;;4994007;28;20490;-68
2023/07/11 06:32:23;;;;;;;2.17;1.63;;;26.10;99.90;;;;;;4993725;28;20493;-68
2023/07/11 06:34:49;;;;;;;0.87;0.87;;;26.20;99.90;;;;;;4993653;28;20489;-68
2023/07/11 06:37:17;;;;;;;1.03;1.03;;;26.60;99.90;;;;;;4993484;28;20470;-68
2023/07/11 06:39:46;;;;;;;0.73;0.73;;;27.00;99.90;;;;;;4993917;28;20463;-68
2023/07/11 06:42:13;;;;;;;0.53;0.53;;;27.10;99.90;;;;;;4993147;28;20486;-68
2023/07/11 06:44:39;;;;;;;0.97;0.77;;;27.30;99.90;;;;;;4992743;28;20467;-68
2023/07/11 06:47:06;;;;;;;1.00;1.00;;;27.50;99.90;;;;;;4993222;28;20462;-68
2023/07/11 06:49:33;;;;;;;1.17;1.07;;;27.80;99.90;;;;;;4993666;28;20482;-68
2023/07/11 06:52:00;;;;;;;1.23;1.23;;;27.30;99.90;;;;;;4993463;28;20485;-68
2023/07/11 06:54:28;;;;;;;0.93;0.93;;;27.30;99.90;;;;;;4993099;28;20475;-68
2023/07/11 06:56:55;;;;;;;1.00;0.90;;;27.30;99.90;;;;;;4992988;28;20469;-68
2023/07/11 06:59:22;;;;;;;0.90;0.90;;;27.20;99.90;;;;;;4993005;28;20466;-68
2023/07/11 07:01:49;;;;;;;0.73;0.73;;;27.30;99.90;;;;;;4992943;28;20494;-68
2023/07/11 07:04:16;;;;;;;0.80;0.80;;;27.50;99.90;;;;;;4993028;28;20470;-68
2023/07/11 07:06:42;;;;;;;3.93;1.57;;;28.30;99.90;;;;;;4993374;28;20474;-68
2023/07/11 07:09:09;;;;;;;1.07;1.00;;;28.40;99.90;;;;;;4992854;28;20467;-68
2023/07/11 07:11:38;;;;;;;1.03;1.03;;;28.30;99.90;;;;;;4993182;28;20867;-69
2023/07/11 07:14:07;;;;;;;1.00;1.00;;;28.10;99.90;;;;;;4992506;28;20475;-68
2023/07/11 07:16:34;;;;;;;0.93;0.93;;;28.10;99.90;;;;;;4992746;28;20470;-68
2023/07/11 07:19:01;;;;;;;0.77;0.77;;;28.40;99.90;;;;;;4993162;28;20562;-68
2023/07/11 07:21:28;;;;;;;0.80;0.80;;;28.80;99.90;;;;;;4992934;28;20483;-68
2023/07/11 07:23:55;;;;;;;1.63;1.30;;;28.60;99.90;;;;;;4992819;28;20509;-68
2023/07/11 07:26:22;;;;;;;0.90;0.90;;;28.50;99.90;;;;;;4992875;28;21131;-68
2023/07/11 07:28:50;;;;;;;0.90;0.90;;;28.20;99.90;;;;;;4993033;28;20464;-68
2023/07/11 07:31:16;;;;;;;0.80;0.80;;;28.10;99.90;;;;;;4993618;28;20513;-68
2023/07/11 07:33:43;;;;;;;0.83;0.83;;;28.30;99.90;;;;;;4992697;28;20463;-68
2023/07/11 07:36:13;;;;;;;0.93;0.93;;;28.60;99.90;;;;;;4992541;28;20463;-68
2023/07/11 07:38:40;;;;;;;0.80;0.80;;;28.70;99.90;;;;;;4992834;28;20474;-68
2023/07/11 07:41:09;;;;;;;1.60;0.80;;;28.10;99.90;;;;;;4993678;28;20479;-68
2023/07/11 07:43:39;;;;;;;1.03;1.03;;;28.40;99.90;;;;;;4988888;28;20462;-68
2023/07/11 07:46:07;;;;;;;0.90;0.80;;;28.80;99.90;;;;;;4991883;28;20463;-68
2023/07/11 07:48:34;;;;;;;0.87;0.83;;;28.70;99.90;;;;;;4992289;28;20474;-68
2023/07/11 07:51:03;;;;;;;0.70;0.70;;;29.30;99.90;;;;;;4992164;28;20834;-68
2023/07/11 07:53:30;;;;;;;0.80;0.80;;;29.70;99.90;;;;;;4992458;28;20463;-67
2023/07/11 07:56:02;;;;;;;1.37;1.27;;;29.50;99.90;;;;;;4991977;28;20517;-68
2023/07/11 07:58:29;;;;;;;0.70;0.70;;;30.00;99.90;;;;;;4991589;28;20466;-68
2023/07/11 08:00:56;;;;;;;1.57;1.47;;;29.60;99.90;;;;;;4992058;28;20498;-68
2023/07/11 08:03:24;;;;;;;2.93;1.17;;;29.30;99.90;;;;;;4991284;28;20474;-68
2023/07/11 08:05:54;;;;;;;0.70;0.70;;;29.00;99.90;;;;;;4993590;28;20549;-68
2023/07/11 08:08:21;;;;;;;1.00;1.00;;;29.10;99.90;;;;;;4992796;28;20474;-67
2023/07/11 08:10:48;;;;;;;0.80;0.80;;;29.60;99.90;;;;;;4991675;28;20854;-67
2023/07/11 08:13:15;;;;;;;0.90;0.90;;;29.90;99.90;;;;;;4991077;28;20955;-67
2023/07/11 08:15:42;;;;;;;2.73;1.00;;;30.00;99.90;;;;;;4991396;28;20477;-67
2023/07/11 08:18:09;;;;;;;0.50;0.50;;;30.30;99.90;;;;;;4991101;28;20553;-67
2023/07/11 08:20:38;;;;;;;0.60;0.60;;;30.40;99.90;;;;;;4991671;28;20573;-67
2023/07/11 08:23:05;;;;;;;0.50;0.50;;;30.20;99.90;;;;;;4991406;28;20504;-68
2023/07/11 08:25:31;;;;;;;0.87;0.87;;;30.20;99.90;;;;;;4991544;28;20467;-67
2023/07/11 08:27:58;;;;;;;0.60;0.60;;;30.20;99.90;;;;;;4990930;28;20463;-68
2023/07/11 08:30:25;;;;;;;0.70;0.60;;;30.20;99.90;;;;;;4990974;28;20486;-67
2023/07/11 08:32:51;;;;;;;0.90;0.90;;;29.80;99.90;;;;;;4991028;28;20463;-67
2023/07/11 08:35:18;;;;;;;1.03;0.60;;;29.50;99.90;;;;;;4991332;28;20493;-68
2023/07/11 08:37:46;;;;;;;0.60;0.60;;;29.60;99.90;;;;;;4991192;28;20463;-67
2023/07/11 08:40:19;;;;;;;0.67;0.67;;;29.80;99.90;;;;;;4991348;28;20486;-67
2023/07/11 08:42:47;;;;;;;0.63;0.63;;;29.90;99.90;;;;;;4990572;28;20471;-68
2023/07/11 08:45:20;;;;;;;0.70;0.70;;;29.90;99.90;;;;;;4991356;28;20462;-68
2023/07/11 08:47:55;;;;;;;0.63;0.63;;;29.40;99.90;;;;;;4990623;28;20471;-67
2023/07/11 08:50:26;;;;;;;1.00;0.90;;;29.00;99.90;;;;;;4990851;28;20489;-67
2023/07/11 08:53:05;;;;;;;0.90;0.90;;;29.20;99.90;;;;;;4990901;28;20787;-67
2023/07/11 08:55:34;;;;;;;0.87;0.70;;;29.30;99.90;;;;;;4990758;28;20561;-67
2023/07/11 08:58:16;;;;;;;1.20;1.20;;;29.30;99.90;;;;;;4990585;28;20474;-68
2023/07/11 09:00:46;;;;;;;0.70;0.70;;;29.30;99.90;;;;;;4990958;28;20497;-68
2023/07/11 09:03:22;;;;;;;1.07;1.03;;;29.50;99.90;;;;;;4990260;28;20463;-67
2023/07/11 09:05:55;;;;;;;1.00;1.00;;;29.50;99.90;;;;;;4990515;28;20510;-67
2023/07/11 09:08:23;;;;;;;0.73;0.73;;;29.30;99.90;;;;;;4990955;28;20493;-67
2023/07/11 09:11:01;;;;;;;1.00;1.00;;;29.10;99.90;;;;;;4991005;28;20518;-68
2023/07/11 09:13:54;;;;;;;3.60;0.80;;;28.60;99.90;;;;;;4990441;28;20467;-67
2023/07/11 09:16:34;;;;;;;0.77;0.77;;;28.50;99.90;;;;;;4990073;28;20900;-67
2023/07/11 09:19:11;;;;;;;0.70;0.70;;;28.50;99.90;;;;;;4990565;28;20463;-67
2023/07/11 09:21:47;;;;;;;1.00;1.00;;;28.40;99.90;;;;;;4990443;28;20490;-67
2023/07/11 09:24:30;;;;;;;1.00;1.00;;;28.20;99.90;;;;;;4990405;28;20462;-67
2023/07/11 09:27:01;;;;;;;0.83;0.83;;;28.30;99.90;;;;;;4990937;28;20614;-67
2023/07/11 09:29:29;;;;;;;2.40;1.03;;;28.20;99.90;;;;;;4990201;28;20490;-67
2023/07/11 09:31:59;;;;;;;1.30;1.20;;;28.10;99.90;;;;;;4990130;28;20490;-67
2023/07/11 09:34:32;;;;;;;1.13;1.13;;;28.20;99.90;;;;;;4990313;28;20489;-68
2023/07/11 09:37:03;;;;;;;0.93;0.93;;;28.40;99.90;;;;;;4990453;28;20470;-68
2023/07/11 09:39:37;;;;;;;0.97;0.97;;;28.40;99.90;;;;;;4990561;28;20470;-68
2023/07/11 09:42:10;;;;;;;0.93;0.90;;;28.50;99.90;;;;;;4990294;28;20497;-68
2023/07/11 09:44:37;;;;;;;0.90;0.90;;;28.60;99.90;;;;;;4988033;28;20492;-68
2023/07/11 09:47:17;;;;;;;1.13;1.13;;;28.30;99.90;;;;;;4989928;28;20883;-67
2023/07/11 09:49:45;;;;;;;1.20;1.20;;;28.00;99.90;;;;;;4990141;28;20467;-68
2023/07/11 09:52:21;;;;;;;1.10;1.10;;;28.00;99.90;;;;;;4990060;28;20492;-68
2023/07/11 09:54:49;;;;;;;2.53;1.30;;;28.10;99.90;;;;;;4990219;28;20505;-68
2023/07/11 09:57:17;;;;;;;0.90;0.90;;;27.90;99.90;;;;;;4990105;28;20467;-67
2023/07/11 09:59:47;;;;;;;1.20;1.20;;;27.90;99.90;;;;;;4989790;28;21004;-68
2023/07/11 10:02:17;;;;;;;1.20;1.20;;;27.80;99.90;;;;;;4989529;28;20500;-68
2023/07/11 10:04:45;;;;;;;1.00;0.97;;;27.70;99.90;;;;;;4990257;28;20472;-68
2023/07/11 10:07:14;;;;;;;0.93;0.93;;;27.80;99.90;;;;;;4990378;28;20516;-68
2023/07/11 10:09:45;;;;;;;1.50;1.40;;;28.00;99.90;;;;;;4990425;28;20830;-68
2023/07/11 10:12:16;;;;;;;1.00;1.00;;;28.10;99.90;;;;;;4990519;28;20490;-68
2023/07/11 10:14:45;;;;;;;1.20;1.20;;;28.20;99.90;;;;;;4990072;28;20470;-67
2023/07/11 10:17:18;;;;;;;1.17;1.07;;;28.30;99.90;;;;;;4990925;28;20465;-67
2023/07/11 10:19:47;;;;;;;0.97;0.97;;;28.20;99.90;;;;;;4991515;28;20891;-69
2023/07/11 10:22:17;;;;;;;3.13;1.23;;;28.00;99.90;;;;;;4990210;28;20485;-68
2023/07/11 10:24:44;;;;;;;0.90;0.90;;;28.20;99.90;;;;;;4990227;28;20496;-69
2023/07/11 10:27:16;;;;;;;1.20;1.20;;;28.20;99.90;;;;;;4989911;28;20469;-68
2023/07/11 10:29:46;;;;;;;1.80;0.87;;;28.40;99.90;;;;;;4989859;28;20468;-69
2023/07/11 10:32:19;;;;;;;1.47;1.37;;;28.30;99.90;;;;;;4990998;28;20513;-69
2023/07/11 10:34:51;;;;;;;0.90;0.90;;;28.30;99.90;;;;;;4993882;28;20476;-69
2023/07/11 10:37:26;;;;;;;0.90;0.90;;;28.30;99.90;;;;;;4993761;28;20465;-68
2023/07/11 10:39:56;;;;;;;0.70;0.70;;;28.20;99.90;;;;;;4994054;28;20474;-68
2023/07/11 10:42:32;;;;;;;0.87;0.57;;;28.30;99.90;;;;;;4991331;28;20479;-67
2023/07/11 10:45:08;;;;;;;0.93;0.90;;;28.50;99.90;;;;;;4986486;28;20474;-68
2023/07/11 10:47:39;;;;;;;0.90;0.90;;;28.30;99.90;;;;;;4993256;28;20472;-69
2023/07/11 10:50:29;;;;;;;1.10;1.00;;;28.30;99.90;;;;;;4993802;28;21009;-69
2023/07/11 10:53:04;;;;;;;2.00;1.40;;;28.40;99.90;;;;;;4993644;28;20456;-68
2023/07/11 10:55:36;;;;;;;0.87;0.87;;;28.40;99.90;;;;;;4993728;28;20491;-68
2023/07/11 10:58:05;;;;;;;1.87;1.77;;;28.50;99.90;;;;;;4992841;28;20464;-69
2023/07/11 11:00:46;;;;;;;0.97;0.97;;;28.60;99.90;;;;;;4993224;28;21355;-68
2023/07/11 11:03:25;;;;;;;1.50;1.50;;;28.80;99.90;;;;;;4993112;28;20480;-69
2023/07/11 11:05:58;;;;;;;1.00;0.90;;;29.00;99.90;;;;;;4993168;28;20575;-67
2023/07/11 11:08:33;;;;;;;0.83;0.83;;;29.00;99.90;;;;;;4993012;28;20465;-68
2023/07/11 11:11:07;;;;;;;1.10;1.10;;;28.90;99.90;;;;;;4993412;28;20524;-68
2023/07/11 11:13:41;;;;;;;1.20;1.20;;;29.00;99.90;;;;;;4993180;28;20470;-69
2023/07/11 11:16:16;;;;;;;1.00;1.00;;;29.10;99.90;;;;;;4993337;28;20468;-69
2023/07/11 11:19:05;;;;;;;1.20;1.20;;;29.10;99.90;;;;;;4993236;28;20473;-69
2023/07/11 11:21:39;;;;;;;1.20;1.20;;;29.10;99.90;;;;;;4993167;28;20488;-68
2023/07/11 11:24:26;;;;;;;1.13;1.13;;;29.30;99.90;;;;;;4993081;28;20477;-69
2023/07/11 11:27:00;;;;;;;1.03;1.03;;;29.40;99.90;;;;;;4992971;28;20465;-69
2023/07/11 11:29:42;;;;;;;0.93;0.93;;;29.30;99.90;;;;;;4992956;28;20470;-68
2023/07/11 11:32:19;;;;;;;0.77;0.77;;;29.10;99.90;;;;;;4992628;28;20857;-69
2023/07/11 11:35:00;;;;;;;0.87;0.87;;;29.10;99.90;;;;;;4992698;28;20703;-69
2023/07/11 11:37:34;;;;;;;0.77;0.77;;;29.20;99.90;;;;;;4992639;28;20473;-69
2023/07/11 11:40:05;;;;;;;1.20;1.20;;;29.40;99.90;;;;;;4992676;28;20469;-68
2023/07/11 11:42:35;;;;;;;0.80;0.80;;;29.40;99.90;;;;;;4991890;28;20593;-68
2023/07/11 11:45:05;;;;;;;0.90;0.90;;;29.20;99.90;;;;;;4991299;28;20460;-69
2023/07/11 11:47:35;;;;;;;1.47;1.37;;;29.30;99.90;;;;;;4991765;28;20482;-69
2023/07/11 11:50:03;;;;;;;0.80;0.80;;;29.50;99.90;;;;;;4992430;28;20466;-69
2023/07/11 11:52:32;;;;;;;1.10;1.10;;;29.60;99.90;;;;;;4991845;28;20709;-69
2023/07/11 11:54:59;;;;;;;1.07;1.07;;;29.70;99.70;;;;;;4992017;28;20469;-69
2023/07/11 11:57:29;;;;;;;1.13;1.13;;;29.80;99.90;;;;;;4992190;28;20462;-68
2023/07/11 11:59:56;;;;;;;1.20;1.10;;;29.80;99.80;;;;;;4991924;28;20471;-69
2023/07/11 12:02:32;;;;;;;1.00;1.00;;;29.90;99.90;;;;;;4991532;28;20517;-68
2023/07/11 12:05:02;;;;;;;1.10;1.10;;;30.00;99.90;;;;;;4992088;28;20942;-69
2023/07/11 12:07:32;;;;;;;1.03;1.03;;;30.00;99.80;;;;;;4992422;28;20463;-69
2023/07/11 12:10:23;;;;;;;1.20;1.20;;;30.10;99.90;;;;;;4992548;28;20479;-69
2023/07/11 12:13:18;;;;;;;1.23;1.23;;;30.00;99.90;;;;;;4991474;28;20494;-67
2023/07/11 12:15:51;;;;;;;1.60;1.60;;;30.10;99.60;;;;;;4986616;28;20470;-68
2023/07/11 12:18:45;;;;;;;1.47;1.47;;;30.00;99.90;;;;;;4991429;28;20462;-67
2023/07/11 12:21:34;;;;;;;3.00;1.80;;;30.00;99.70;;;;;;4992168;28;20982;-66
2023/07/11 12:24:24;;;;;;;2.93;1.80;;;30.00;99.90;;;;;;4992873;28;20471;-66
2023/07/11 12:26:52;;;;;;;1.47;1.47;;;30.20;99.60;;;;;;4993340;28;20956;-67
2023/07/11 12:29:38;;;;;;;1.30;1.30;;;30.20;99.50;;;;;;4992734;28;20467;-65
2023/07/11 12:32:30;;;;;;;1.40;1.30;;;30.10;99.60;;;;;;4992128;28;20502;-66
2023/07/11 12:35:08;;;;;;;1.40;1.40;;;30.20;99.90;;;;;;4985378;28;20795;-66
2023/07/11 12:37:42;;;;;;;1.70;1.70;;;30.30;99.90;;;;;;4992282;28;20990;-66
2023/07/11 12:40:14;;;;;;;1.80;1.80;;;30.40;99.60;;;;;;4992227;28;20466;-66
2023/07/11 12:42:50;;;;;;;1.70;1.47;;;30.30;99.40;;;;;;4991300;28;20951;-66
2023/07/11 12:45:22;;;;;;;1.00;1.00;;;30.00;99.90;;;;;;4992030;28;20789;-66
2023/07/11 12:47:51;;;;;;;1.77;1.67;;;30.00;99.90;;;;;;4991558;28;20473;-66
2023/07/11 12:50:41;;;;;;;1.30;1.30;;;30.10;99.90;;;;;;4991949;28;20462;-66
2023/07/11 12:53:08;;;;;;;1.10;1.10;;;30.20;99.90;;;;;;4991571;28;20608;-67
2023/07/11 12:55:35;;;;;;;1.50;1.50;;;30.30;99.80;;;;;;4991677;28;20474;-66
2023/07/11 12:58:01;;;;;;;1.30;1.30;;;30.40;99.60;;;;;;4991266;28;20471;-65
2023/07/11 13:00:30;;;;;;;1.30;1.30;;;30.20;99.20;;;;;;4991496;28;20463;-66
2023/07/11 13:03:02;;;;;;;2.40;1.50;;;30.10;99.90;;;;;;4991350;28;20461;-68
2023/07/11 13:05:32;;;;;;;2.03;2.03;;;30.00;99.90;;;;;;4991413;28;20466;-68
2023/07/11 13:08:12;;;;;;;1.37;1.37;;;29.90;99.90;;;;;;4991363;28;20947;-68
2023/07/11 13:10:39;;;;;;;1.17;1.17;;;29.90;99.90;;;;;;4991790;28;20854;-68
2023/07/11 13:13:11;;;;;;;1.70;1.70;;;30.10;99.90;;;;;;4991315;28;20487;-68
2023/07/11 13:15:39;;;;;;;2.20;2.20;;;30.30;99.90;;;;;;4991594;28;20471;-67
2023/07/11 13:18:22;;;;;;;2.10;1.70;;;30.40;99.90;;;;;;4991033;28;20462;-68
2023/07/11 13:21:04;;;;;;;1.57;1.57;;;30.20;99.90;;;;;;4992106;28;20491;-69
2023/07/11 13:23:33;;;;;;;1.47;1.47;;;30.20;99.90;;;;;;4991448;28;20516;-69
2023/07/11 13:26:00;;;;;;;1.43;1.43;;;30.20;99.90;;;;;;4991303;28;20463;-69
2023/07/11 13:28:35;;;;;;;1.77;1.77;;;30.30;99.90;;;;;;4990667;28;20462;-68
2023/07/11 13:31:04;;;;;;;1.80;1.80;;;30.20;99.90;;;;;;4991542;28;20489;-69
2023/07/11 13:33:34;;;;;;;1.90;1.90;;;30.10;99.90;;;;;;4991003;28;20493;-69
2023/07/11 13:36:05;;;;;;;1.53;1.53;;;30.10;99.90;;;;;;4991392;28;20537;-69
2023/07/11 13:38:40;;;;;;;2.30;2.30;;;30.10;99.90;;;;;;4991152;28;20479;-68
2023/07/11 13:41:12;;;;;;;1.83;1.80;;;30.00;99.90;;;;;;4991163;28;20482;-69
2023/07/11 13:43:40;;;;;;;2.13;2.13;;;30.00;99.90;;;;;;4990566;28;20481;-68
2023/07/11 13:46:07;;;;;;;1.97;1.97;;;30.10;99.90;;;;;;4990774;28;20497;-67
2023/07/11 13:48:36;;;;;;;1.70;1.70;;;30.00;99.90;;;;;;4990984;28;20467;-68
2023/07/11 13:51:17;;;;;;;1.93;1.83;;;30.10;99.90;;;;;;4991428;28;20483;-68
2023/07/11 13:53:47;;;;;;;2.00;1.90;;;30.20;99.90;;;;;;4991372;28;20528;-68
2023/07/11 13:56:15;;;;;;;2.27;2.27;;;30.20;99.90;;;;;;4990948;28;20470;-68
2023/07/11 13:58:41;;;;;;;1.57;1.57;;;30.30;99.90;;;;;;4990866;28;20470;-69
2023/07/11 14:01:12;;;;;;;3.10;2.80;;;30.50;99.90;;;;;;4990808;28;20868;-69
2023/07/11 14:03:39;;;;;;;2.07;2.07;;;30.50;99.90;;;;;;4990946;28;20459;-68
2023/07/11 14:06:12;;;;;;;1.73;1.73;;;30.50;99.90;;;;;;4990693;28;20458;-68
2023/07/11 14:08:39;;;;;;;2.20;2.20;;;30.60;99.90;;;;;;4994721;28;20490;-69
2023/07/11 14:11:12;;;;;;;1.53;1.53;;;30.50;99.90;;;;;;4995003;28;20483;-69
2023/07/11 14:13:40;;;;;;;2.90;2.13;;;30.30;99.90;;;;;;4994665;28;20541;-68
2023/07/11 14:16:08;;;;;;;4.73;1.67;;;30.20;99.90;;;;;;4994607;28;20979;-69
2023/07/11 14:18:35;;;;;;;2.43;2.37;;;30.20;99.90;;;;;;4995711;28;20640;-68
2023/07/11 14:21:02;;;;;;;2.40;2.30;;;30.30;99.90;;;;;;4996433;28;20845;-68
2023/07/11 14:23:31;;;;;;;2.47;2.37;;;30.30;99.90;;;;;;4996825;28;20482;-68
2023/07/11 14:25:58;;;;;;;2.17;2.17;;;30.20;99.90;;;;;;4995410;28;20466;-69
2023/07/11 14:28:25;;;;;;;2.37;2.27;;;30.30;99.90;;;;;;4995039;28;20462;-68
2023/07/11 14:30:55;;;;;;;2.70;2.60;;;30.40;99.90;;;;;;4994527;28;20471;-68
2023/07/11 14:33:24;;;;;;;2.43;2.33;;;30.60;99.90;;;;;;4993831;28;20483;-68
2023/07/11 14:35:51;;;;;;;2.33;2.13;;;30.60;99.90;;;;;;4994169;28;20478;-68
2023/07/11 14:38:20;;;;;;;1.97;1.87;;;30.80;99.90;;;;;;4994228;28;20455;-68
2023/07/11 14:40:49;;;;;;;1.90;1.80;;;30.70;99.90;;;;;;4994497;28;20486;-69
2023/07/11 14:43:17;;;;;;;2.20;2.20;;;30.80;99.90;;;;;;4993700;28;20465;-69
2023/07/11 14:45:44;;;;;;;1.90;1.90;;;30.90;99.90;;;;;;4994263;28;20478;-69
2023/07/11 14:48:15;;;;;;;1.90;1.90;;;30.90;99.90;;;;;;4993341;28;20471;-69
2023/07/11 14:50:43;;;;;;;2.57;2.47;;;31.00;99.90;;;;;;4993717;28;20482;-69
2023/07/11 14:53:31;;;;;;;2.37;2.27;;;30.90;99.80;;;;;;4993800;28;20493;-69
2023/07/11 14:56:01;;;;;;;2.20;2.10;;;30.70;99.90;;;;;;4993616;28;20471;-69
2023/07/11 14:58:28;;;;;;;2.83;2.63;;;30.70;99.90;;;;;;4993404;28;20633;-69
2023/07/11 15:00:55;;;;;;;2.90;2.90;;;30.70;99.90;;;;;;4993828;28;20494;-69
2023/07/11 15:03:24;;;;;;;2.10;2.10;;;30.90;99.90;;;;;;4993292;28;20470;-69
2023/07/11 15:05:51;;;;;;;2.53;2.43;;;31.10;99.80;;;;;;4993651;28;20493;-69
2023/07/11 15:08:19;;;;;;;2.70;2.60;;;31.40;99.80;;;;;;4993272;28;20908;-69
2023/07/11 15:10:48;;;;;;;2.33;2.23;;;31.40;99.70;;;;;;4993643;28;20483;-69
2023/07/11 15:13:17;;;;;;;1.83;1.83;;;31.60;99.30;;;;;;4993211;28;20487;-69
2023/07/11 15:15:43;;;;;;;2.47;2.37;;;31.40;99.10;;;;;;4993217;28;20462;-69
2023/07/11 15:18:17;;;;;;;2.23;2.13;;;31.50;99.10;;;;;;4992859;28;20486;-69
2023/07/11 15:20:44;;;;;;;2.27;2.17;;;31.50;98.80;;;;;;4993267;28;20490;-69
2023/07/11 15:23:13;;;;;;;2.50;2.30;;;31.60;99.30;;;;;;4993111;28;20465;-69
2023/07/11 15:25:41;;;;;;;2.83;2.83;;;31.80;99.10;;;;;;4993153;28;20467;-69
2023/07/11 15:28:18;;;;;;;2.83;2.53;;;31.80;98.60;;;;;;4993049;28;20490;-69
2023/07/11 15:30:45;;;;;;;2.77;2.67;;;31.90;98.80;;;;;;4993221;28;20478;-68
2023/07/11 15:33:22;;;;;;;2.37;2.27;;;32.00;98.40;;;;;;4992480;28;20487;-69
2023/07/11 15:35:49;;;;;;;2.00;2.00;;;31.90;98.40;;;;;;4993183;28;20459;-69
2023/07/11 15:38:19;;;;;;;2.67;2.53;;;31.70;98.60;;;;;;4992913;28;20478;-69
2023/07/11 15:40:46;;;;;;;2.17;2.17;;;31.50;98.90;;;;;;4993141;28;20538;-68
2023/07/11 15:43:20;;;;;;;2.30;2.20;;;31.50;98.90;;;;;;4992107;28;20485;-68
2023/07/11 15:45:47;;;;;;;2.40;2.30;;;31.50;98.70;;;;;;4992700;28;20498;-68
2023/07/11 15:48:14;;;;;;;2.50;2.40;;;31.40;98.80;;;;;;4992082;28;20478;-68
2023/07/11 15:50:41;;;;;;;2.30;2.20;;;31.40;99.00;;;;;;4992884;28;20505;-68
2023/07/11 15:53:09;;;;;;;2.53;2.47;;;31.50;99.80;;;;;;4992546;28;21038;-68
2023/07/11 15:55:36;;;;;;;2.80;2.60;;;31.70;99.00;;;;;;4992647;28;20494;-69
2023/07/11 15:58:03;;;;;;;2.47;2.47;;;31.60;98.70;;;;;;4992129;28;20463;-68
2023/07/11 16:00:33;;;;;;;2.10;2.00;;;31.40;99.50;;;;;;4992283;28;20471;-68
2023/07/11 16:03:01;;;;;;;2.50;2.30;;;31.30;99.10;;;;;;4992306;28;20883;-68
2023/07/11 16:05:33;;;;;;;2.83;2.73;;;31.30;99.60;;;;;;4992261;28;20980;-67
2023/07/11 16:08:00;;;;;;;2.57;2.50;;;31.10;99.50;;;;;;4992348;28;20473;-68
2023/07/11 16:10:30;;;;;;;3.70;2.50;;;30.90;99.90;;;;;;4992469;28;20463;-68
2023/07/11 16:12:57;;;;;;;3.20;3.10;;;30.90;99.90;;;;;;4991805;28;20482;-68
2023/07/11 16:15:27;;;;;;;2.83;2.73;;;30.90;99.90;;;;;;4992094;28;20463;-68
2023/07/11 16:17:55;;;;;;;2.57;2.47;;;30.80;99.90;;;;;;4991926;28;20839;-68
2023/07/11 16:20:26;;;;;;;3.07;2.87;;;30.90;99.90;;;;;;4992311;28;20463;-68
2023/07/11 16:22:53;;;;;;;1.90;1.90;;;31.00;99.90;;;;;;4994185;28;20459;-69
2023/07/11 16:25:21;;;;;;;3.33;3.10;;;31.10;99.90;;;;;;4993261;28;20554;-69
2023/07/11 16:27:52;;;;;;;3.10;2.90;;;31.10;99.90;;;;;;4992568;28;20470;-68
2023/07/11 16:30:22;;;;;;;2.93;2.73;;;31.00;99.90;;;;;;4992192;28;20470;-68
2023/07/11 16:32:50;;;;;;;2.50;2.40;;;30.90;99.90;;;;;;4991842;28;20482;-69
2023/07/11 16:35:21;;;;;;;2.83;2.73;;;30.80;99.90;;;;;;4992210;28;20471;-69
2023/07/11 16:37:48;;;;;;;2.30;2.20;;;30.70;99.90;;;;;;4991974;28;20467;-69
2023/07/11 16:40:19;;;;;;;2.13;2.03;;;30.60;99.90;;;;;;4991905;28;20525;-68
2023/07/11 16:42:46;;;;;;;3.20;3.10;;;30.50;99.90;;;;;;4991713;28;20474;-68
2023/07/11 16:45:14;;;;;;;3.57;2.30;;;30.40;99.90;;;;;;4992078;28;20569;-70
2023/07/11 16:47:41;;;;;;;4.47;2.60;;;30.30;99.90;;;;;;4991371;28;20471;-70
2023/07/11 16:50:16;;;;;;;2.37;2.27;;;30.20;99.90;;;;;;4992063;28;20466;-69
2023/07/11 16:52:44;;;;;;;2.10;2.10;;;30.20;99.90;;;;;;4991460;28;20479;-69
2023/07/11 16:55:12;;;;;;;2.60;2.50;;;30.10;99.90;;;;;;4991592;28;20477;-70
2023/07/11 16:57:40;;;;;;;2.20;2.17;;;30.20;99.90;;;;;;4991238;28;20849;-69
2023/07/11 17:00:16;;;;;;;2.50;2.47;;;30.30;99.90;;;;;;4991717;28;20952;-69
2023/07/11 17:02:42;;;;;;;2.33;2.23;;;30.30;99.90;;;;;;4991119;28;20451;-69
2023/07/11 17:05:10;;;;;;;2.17;2.10;;;30.30;99.90;;;;;;4991445;28;20466;-69